createdAt,value
2022-11-12T00:00:58.270Z,78.38
2022-11-12T00:03:24.629Z,77.47
2022-11-12T00:05:50.991Z,78.48
2022-11-12T00:08:17.371Z,77.95
2022-11-12T00:10:43.728Z,77.14
2022-11-12T00:13:10.084Z,77.73
2022-11-12T00:15:36.468Z,77.17
2022-11-12T00:18:02.835Z,76.72
2022-11-12T00:20:29.188Z,76.63
2022-11-12T00:22:55.561Z,76.20
2022-11-12T00:25:21.915Z,77.14
2022-11-12T00:27:48.277Z,76.47
2022-11-12T00:30:14.648Z,76.88
2022-11-12T00:32:41.010Z,77.08
2022-11-12T00:35:12.483Z,77.61
2022-11-12T00:37:40.172Z,76.98
2022-11-12T00:40:06.538Z,75.99
2022-11-12T00:42:32.893Z,76.96
2022-11-12T00:44:59.316Z,76.72
2022-11-12T00:47:25.672Z,76.71
2022-11-12T00:49:52.027Z,77.20
2022-11-12T00:52:18.399Z,76.53
2022-11-12T00:54:44.779Z,77.34
2022-11-12T00:57:11.167Z,77.23
2022-11-12T00:59:37.553Z,77.52
2022-11-12T01:02:03.926Z,77.37
2022-11-12T01:04:30.444Z,76.92
2022-11-12T01:06:56.952Z,76.66
2022-11-12T01:09:23.353Z,77.66
2022-11-12T01:11:49.717Z,77.49
2022-11-12T01:14:16.090Z,77.21
2022-11-12T01:16:42.448Z,78.35
2022-11-12T01:19:08.799Z,78.19
2022-11-12T01:21:35.176Z,77.87
2022-11-12T01:24:01.534Z,77.86
2022-11-12T01:26:27.886Z,77.92
2022-11-12T01:28:54.326Z,77.40
2022-11-12T01:31:20.672Z,77.69
2022-11-12T01:33:47.027Z,77.77
2022-11-12T01:36:13.404Z,77.60
2022-11-12T01:38:39.787Z,78.36
2022-11-12T01:41:06.253Z,77.97
2022-11-12T01:43:32.642Z,77.21
2022-11-12T01:45:59.053Z,78.17
2022-11-12T01:48:25.686Z,77.94
2022-11-12T01:50:52.312Z,77.38
2022-11-12T01:53:18.675Z,78.09
2022-11-12T01:55:45.026Z,78.06
2022-11-12T01:58:11.410Z,77.43
2022-11-12T02:00:37.763Z,77.42
2022-11-12T02:03:04.121Z,76.69
2022-11-12T02:05:30.535Z,77.36
2022-11-12T02:07:56.897Z,78.13
2022-11-12T02:10:23.241Z,78.16
2022-11-12T02:12:49.619Z,78.98
2022-11-12T02:15:15.971Z,79.91
2022-11-12T02:17:42.324Z,80.22
2022-11-12T02:20:08.698Z,78.46
2022-11-12T02:22:35.047Z,77.87
2022-11-12T02:25:01.409Z,77.16
2022-11-12T02:27:27.787Z,76.68
2022-11-12T02:29:54.132Z,77.31
2022-11-12T02:32:20.486Z,78.37
2022-11-12T02:34:46.868Z,77.13
2022-11-12T02:37:13.225Z,76.88
2022-11-12T02:39:39.647Z,76.85
2022-11-12T02:42:06.026Z,77.06
2022-11-12T02:44:32.370Z,78.28
2022-11-12T02:46:58.721Z,78.30
2022-11-12T02:49:25.105Z,77.16
2022-11-12T02:51:51.449Z,78.20
2022-11-12T02:54:17.807Z,77.57
2022-11-12T02:56:44.225Z,78.65
2022-11-12T02:59:10.586Z,76.90
2022-11-12T03:01:36.940Z,76.48
2022-11-12T03:04:03.336Z,77.49
2022-11-12T03:06:29.691Z,78.29
2022-11-12T03:08:56.074Z,79.29
2022-11-12T03:11:22.434Z,79.95
2022-11-12T03:13:48.805Z,80.48
2022-11-12T03:16:15.173Z,80.25
2022-11-12T03:18:41.530Z,77.86
2022-11-12T03:21:07.892Z,77.79
2022-11-12T03:23:34.243Z,78.18
2022-11-12T03:26:00.611Z,78.29
2022-11-12T03:28:27.209Z,79.25
2022-11-12T03:30:53.845Z,77.22
2022-11-12T03:33:20.232Z,77.47
2022-11-12T03:35:46.673Z,77.34
2022-11-12T03:38:13.089Z,78.94
2022-11-12T03:40:39.489Z,79.08
2022-11-12T03:43:05.842Z,80.14
2022-11-12T03:45:32.265Z,80.84
2022-11-12T03:47:58.638Z,81.57
2022-11-12T03:50:25.017Z,81.15
2022-11-12T03:52:51.372Z,81.49
2022-11-12T03:55:17.743Z,81.21
2022-11-12T03:57:44.104Z,80.65
2022-11-12T04:00:10.490Z,81.33
2022-11-12T04:02:36.913Z,81.00
2022-11-12T04:05:03.269Z,81.88
2022-11-12T04:07:29.616Z,81.67
2022-11-12T04:09:56.016Z,81.95
2022-11-12T04:12:22.370Z,81.68
2022-11-12T04:14:48.724Z,81.70
2022-11-12T04:17:15.098Z,81.23
2022-11-12T04:19:41.457Z,81.90
2022-11-12T04:22:07.814Z,80.62
2022-11-12T04:24:34.186Z,81.20
2022-11-12T04:27:00.549Z,79.50
2022-11-12T04:29:26.907Z,81.99
2022-11-12T04:31:53.289Z,82.96
2022-11-12T04:34:19.650Z,83.56
2022-11-12T04:36:46.045Z,82.16
2022-11-12T04:39:12.424Z,81.68
2022-11-12T04:41:38.895Z,81.46
2022-11-12T04:44:05.257Z,81.45
2022-11-12T04:46:31.623Z,80.89
2022-11-12T04:48:57.982Z,81.13
2022-11-12T04:51:24.344Z,82.17
2022-11-12T04:53:50.717Z,82.90
2022-11-12T04:56:17.088Z,82.62
2022-11-12T04:58:43.449Z,81.95
2022-11-12T05:01:09.906Z,82.58
2022-11-12T05:03:36.300Z,81.51
2022-11-12T05:06:02.667Z,82.47
2022-11-12T05:08:29.235Z,82.03
2022-11-12T05:10:55.724Z,81.76
2022-11-12T05:13:22.088Z,81.83
2022-11-12T05:15:48.461Z,81.32
2022-11-12T05:18:14.820Z,81.86
2022-11-12T05:20:41.218Z,81.34
2022-11-12T05:23:07.938Z,81.36
2022-11-12T05:25:34.440Z,80.98
2022-11-12T05:28:00.795Z,80.19
2022-11-12T05:30:27.171Z,80.84
2022-11-12T05:32:54.671Z,80.64
2022-11-12T05:35:21.019Z,80.94
2022-11-12T05:37:47.383Z,81.26
2022-11-12T05:40:13.740Z,81.27
2022-11-12T05:42:40.097Z,80.30
2022-11-12T05:45:06.521Z,79.90
2022-11-12T05:47:32.876Z,79.97
2022-11-12T05:49:59.229Z,81.03
2022-11-12T05:52:25.613Z,80.92
2022-11-12T05:54:51.962Z,80.25
2022-11-12T05:57:18.300Z,80.70
2022-11-12T05:59:44.673Z,81.30
2022-11-12T06:02:11.042Z,80.85
2022-11-12T06:04:37.421Z,80.75
2022-11-12T06:07:03.829Z,79.90
2022-11-12T06:09:30.198Z,78.82
2022-11-12T06:11:56.561Z,77.99
2022-11-12T06:14:22.963Z,78.00
2022-11-12T06:16:49.311Z,79.18
2022-11-12T06:19:15.669Z,78.59
2022-11-12T06:21:42.043Z,78.54
2022-11-12T06:24:08.571Z,79.17
2022-11-12T06:26:34.930Z,78.94
2022-11-12T06:29:01.312Z,78.07
2022-11-12T06:31:27.664Z,77.53
2022-11-12T06:33:54.032Z,76.62
2022-11-12T06:36:20.404Z,76.22
2022-11-12T06:38:46.750Z,77.50
2022-11-12T06:41:13.103Z,77.63
2022-11-12T06:43:39.489Z,76.55
2022-11-12T06:46:05.840Z,78.29
2022-11-12T06:48:32.203Z,79.06
2022-11-12T06:50:58.603Z,79.19
2022-11-12T06:53:24.965Z,77.82
2022-11-12T06:55:51.391Z,77.51
2022-11-12T06:58:17.783Z,77.35
2022-11-12T07:00:44.125Z,77.29
2022-11-12T07:03:10.475Z,77.94
2022-11-12T07:05:36.944Z,77.13
2022-11-12T07:08:03.525Z,77.19
2022-11-12T07:10:30.111Z,76.75
2022-11-12T07:12:56.587Z,77.21
2022-11-12T07:15:22.990Z,77.23
2022-11-12T07:17:49.336Z,77.65
2022-11-12T07:20:15.750Z,79.17
2022-11-12T07:22:42.112Z,79.49
2022-11-12T07:25:08.467Z,80.20
2022-11-12T07:27:34.844Z,80.85
2022-11-12T07:30:01.200Z,80.56
2022-11-12T07:32:27.557Z,81.23
2022-11-12T07:34:53.935Z,80.61
2022-11-12T07:37:20.286Z,81.65
2022-11-12T07:39:46.638Z,80.22
2022-11-12T07:42:13.152Z,80.35
2022-11-12T07:44:39.514Z,80.46
2022-11-12T07:47:05.866Z,80.37
2022-11-12T07:49:32.262Z,79.23
2022-11-12T08:41:10.824Z,79.02
2022-11-12T08:49:11.897Z,80.54
2022-11-12T08:51:38.267Z,79.84
2022-11-12T09:02:03.862Z,79.49
2022-11-12T09:04:30.220Z,78.97
2022-11-12T09:06:56.610Z,80.06
2022-11-12T09:09:22.996Z,79.78
2022-11-12T09:11:49.342Z,79.57
2022-11-12T09:14:15.752Z,80.79
2022-11-12T09:16:42.139Z,80.75
2022-11-12T09:19:08.487Z,80.21
2022-11-12T09:21:34.857Z,78.98
2022-11-12T09:24:01.230Z,79.88
2022-11-12T09:26:27.577Z,78.94
2022-11-12T09:28:53.934Z,78.27
2022-11-12T09:31:20.312Z,78.17
2022-11-12T09:33:46.657Z,77.66
2022-11-12T09:36:13.008Z,77.25
2022-11-12T09:38:39.387Z,76.02
2022-11-12T09:41:05.733Z,75.28
2022-11-12T09:43:32.093Z,75.02
2022-11-12T09:46:26.215Z,74.94
2022-11-12T09:48:44.870Z,74.79
2022-11-12T09:51:11.244Z,74.89
2022-11-12T09:53:43.002Z,73.99
2022-11-12T09:56:10.576Z,74.20
2022-11-12T09:58:36.942Z,74.13
2022-11-12T10:01:03.302Z,73.51
2022-11-12T10:03:29.647Z,74.35
2022-11-12T10:05:56.010Z,74.44
2022-11-12T10:08:22.362Z,74.63
2022-11-12T10:10:48.712Z,74.94
2022-11-12T10:13:15.068Z,74.18
2022-11-12T10:15:41.413Z,73.43
2022-11-12T10:18:07.778Z,73.45
2022-11-12T10:20:38.556Z,73.72
2022-11-12T10:23:05.243Z,73.77
2022-11-12T10:25:31.590Z,73.55
2022-11-12T10:27:57.966Z,74.08
2022-11-12T10:30:24.312Z,75.32
2022-11-12T10:32:50.669Z,74.51
2022-11-12T10:35:17.033Z,73.66
2022-11-12T10:37:43.541Z,74.42
2022-11-12T10:40:10.820Z,74.73
2022-11-12T10:42:38.270Z,74.06
2022-11-12T10:45:07.171Z,74.16
2022-11-12T10:47:35.242Z,75.15
2022-11-12T10:50:03.554Z,74.14
2022-11-12T10:52:32.784Z,74.67
2022-11-12T10:54:59.270Z,74.48
2022-11-12T10:57:25.648Z,74.04
2022-11-12T11:16:14.780Z,73.69
2022-11-12T11:18:41.124Z,73.67
2022-11-12T11:21:07.482Z,73.97
2022-11-12T11:23:33.914Z,73.10
2022-11-12T11:26:00.248Z,74.36
2022-11-12T11:28:26.973Z,73.90
2022-11-12T11:30:53.538Z,74.27
2022-11-12T11:33:19.893Z,74.29
2022-11-12T11:35:46.235Z,74.09
2022-11-12T11:38:12.619Z,73.60
2022-11-12T11:40:38.973Z,74.21
2022-11-12T11:43:05.334Z,74.48
2022-11-12T11:45:31.706Z,73.59
2022-11-12T11:48:01.508Z,74.02
2022-11-12T11:50:28.528Z,74.52
2022-11-12T11:52:55.181Z,73.93
2022-11-12T11:55:21.585Z,73.15
2022-11-12T11:57:47.953Z,73.32
2022-11-12T12:00:14.346Z,73.29
2022-11-12T12:02:40.728Z,73.42
2022-11-12T12:05:07.087Z,73.02
2022-11-12T12:07:33.459Z,73.36
2022-11-12T12:10:03.483Z,73.31
2022-11-12T12:12:32.709Z,73.24
2022-11-12T12:14:59.148Z,73.43
2022-11-12T12:17:30.666Z,74.39
2022-11-12T12:19:58.221Z,74.10
2022-11-12T12:22:24.572Z,74.87
2022-11-12T12:24:51.026Z,75.12
2022-11-12T12:27:17.402Z,74.99
2022-11-12T12:29:43.793Z,74.75
2022-11-12T12:32:10.184Z,74.58
2022-11-12T12:34:36.577Z,74.84
2022-11-12T12:37:03.054Z,74.68
2022-11-12T12:39:29.434Z,74.60
2022-11-12T12:41:56.571Z,76.09
2022-11-12T12:44:22.950Z,75.65
2022-11-12T12:46:49.346Z,74.69
2022-11-12T12:49:15.768Z,74.98
2022-11-12T12:51:42.163Z,75.31
2022-11-12T12:54:08.554Z,75.10
2022-11-12T12:56:35.015Z,74.67
2022-11-12T12:59:01.393Z,74.48
2022-11-12T13:01:27.783Z,75.25
2022-11-12T13:03:54.175Z,74.98
2022-11-12T13:06:20.530Z,74.77
2022-11-12T13:08:46.868Z,74.72
2022-11-12T13:11:13.322Z,74.60
2022-11-12T13:13:39.717Z,74.96
2022-11-12T13:16:07.988Z,75.22
2022-11-12T13:18:34.628Z,74.72
2022-11-12T13:21:01.013Z,75.93
2022-11-12T13:23:31.591Z,76.56
2022-11-12T13:25:58.340Z,76.13
2022-11-12T13:28:24.968Z,75.98
2022-11-12T13:30:51.614Z,76.39
2022-11-12T13:33:17.976Z,76.02
2022-11-12T13:35:44.425Z,75.83
2022-11-12T13:38:10.807Z,75.71
2022-11-12T13:40:37.196Z,75.02
2022-11-12T13:43:03.551Z,75.77
2022-11-12T13:45:29.894Z,76.71
2022-11-12T13:47:56.288Z,76.53
2022-11-12T13:50:22.683Z,77.32
2022-11-12T13:52:49.035Z,77.29
2022-11-12T13:55:15.435Z,76.92
2022-11-12T13:57:41.808Z,77.62
2022-11-12T14:00:08.166Z,76.79
2022-11-12T14:02:39.071Z,75.59
2022-11-12T14:05:07.625Z,76.53
2022-11-12T14:07:33.971Z,76.35
2022-11-12T14:10:00.330Z,76.35
2022-11-12T14:12:26.684Z,76.98
2022-11-12T14:14:53.031Z,76.91
2022-11-12T14:17:22.258Z,77.70
2022-11-12T14:19:48.934Z,78.36
2022-11-12T14:22:15.287Z,78.22
2022-11-12T14:24:41.698Z,78.78
2022-11-12T14:27:08.057Z,78.36
2022-11-12T14:29:37.809Z,78.75
2022-11-12T14:32:06.328Z,77.75
2022-11-12T14:34:32.679Z,77.02
2022-11-12T14:36:59.025Z,76.68
2022-11-12T14:39:25.400Z,76.58
2022-11-12T14:41:51.745Z,76.70
2022-11-12T14:44:18.081Z,76.97
2022-11-12T14:46:44.455Z,76.38
2022-11-12T14:49:10.819Z,76.78
2022-11-12T14:51:37.175Z,77.05
2022-11-12T14:54:03.548Z,76.57
2022-11-12T14:56:35.146Z,76.71
2022-11-12T14:59:02.044Z,76.30
2022-11-12T15:02:08.846Z,76.51
2022-11-12T15:04:14.745Z,77.06
2022-11-12T15:06:41.202Z,77.77
2022-11-12T15:09:07.575Z,77.49
2022-11-12T15:11:33.946Z,78.12
2022-11-12T15:14:00.328Z,78.05
2022-11-12T15:16:26.721Z,76.95
2022-11-12T15:18:53.075Z,77.41
2022-11-12T15:21:19.439Z,78.08
2022-11-12T15:23:45.785Z,77.82
2022-11-12T15:26:14.238Z,77.31
2022-11-12T15:28:40.756Z,76.89
2022-11-12T15:31:07.104Z,77.64
2022-11-12T15:33:33.453Z,78.15
2022-11-12T15:35:59.827Z,78.68
2022-11-12T15:38:26.211Z,78.62
2022-11-12T15:40:57.119Z,79.57
2022-11-12T15:43:24.308Z,79.21
2022-11-12T15:45:51.083Z,79.69
2022-11-12T15:48:17.526Z,79.77
2022-11-12T15:50:44.151Z,79.99
2022-11-12T15:53:10.703Z,79.59
2022-11-12T15:55:37.574Z,80.37
2022-11-12T15:58:04.260Z,79.69
2022-11-12T16:00:31.036Z,79.76
2022-11-12T16:02:57.845Z,78.85
2022-11-12T16:05:24.421Z,77.78
2022-11-12T16:07:51.729Z,77.96
2022-11-12T16:10:19.793Z,77.94
2022-11-12T16:12:48.443Z,77.95
2022-11-12T16:15:14.907Z,78.84
2022-11-12T16:17:41.814Z,78.49
2022-11-12T16:20:11.493Z,79.04
2022-11-12T16:25:13.390Z,80.57
2022-11-12T16:27:39.749Z,80.14
2022-11-12T16:30:06.115Z,80.28
2022-11-12T16:32:32.487Z,78.89
2022-11-12T16:35:01.259Z,78.77
2022-11-12T16:37:27.974Z,79.13
2022-11-12T16:39:54.333Z,79.97
2022-11-12T16:42:20.668Z,79.06
2022-11-12T16:44:46.996Z,79.94
2022-11-12T16:47:13.344Z,79.50
2022-11-12T16:49:39.679Z,79.45
2022-11-12T16:52:06.005Z,81.14
2022-11-12T16:54:32.356Z,80.58
2022-11-12T16:56:58.692Z,79.98
2022-11-12T16:59:25.032Z,80.01
2022-11-12T17:01:51.385Z,79.25
2022-11-12T17:04:17.735Z,78.79
2022-11-12T17:06:44.137Z,78.76
2022-11-12T17:09:10.560Z,77.96
2022-11-12T17:11:36.916Z,78.09
2022-11-12T17:14:03.277Z,77.93
2022-11-12T17:16:30.761Z,78.89
2022-11-12T17:18:57.117Z,81.46
2022-11-12T17:21:23.471Z,80.99
2022-11-12T17:23:49.838Z,80.71
2022-11-12T17:26:16.211Z,78.82
2022-11-12T17:28:42.558Z,79.40
2022-11-12T17:31:08.920Z,78.98
2022-11-12T17:33:35.272Z,79.87
2022-11-12T17:36:01.632Z,79.53
2022-11-12T17:38:28.016Z,81.12
2022-11-12T17:40:54.375Z,81.26
2022-11-12T17:43:20.733Z,80.56
2022-11-12T17:45:47.142Z,79.84
2022-11-12T17:48:13.496Z,79.92
2022-11-12T17:50:39.852Z,79.77
2022-11-12T18:01:13.944Z,81.21
2022-11-12T18:25:31.445Z,81.18
2022-11-12T18:27:57.811Z,82.31
2022-11-12T18:30:24.172Z,80.52
2022-11-12T18:32:50.578Z,79.80
2022-11-12T18:35:16.932Z,81.27
2022-11-12T18:37:43.295Z,80.13
2022-11-12T18:40:09.666Z,81.36
2022-11-12T18:42:36.018Z,81.60
2022-11-12T18:45:02.366Z,80.57
2022-11-12T18:47:28.741Z,81.66
2022-11-12T18:49:55.097Z,81.52
2022-11-12T18:52:21.446Z,81.75
2022-11-12T18:54:47.817Z,79.93
2022-11-12T18:57:14.171Z,80.38
2022-11-12T18:59:40.530Z,80.16
2022-11-12T19:02:06.908Z,80.61
2022-11-12T19:04:33.258Z,80.52
2022-11-12T19:06:59.673Z,80.41
2022-11-12T19:09:26.098Z,81.14
2022-11-12T19:11:52.463Z,81.89
2022-11-12T19:19:43.861Z,81.39
2022-11-12T19:22:10.216Z,80.82
2022-11-12T19:24:36.576Z,79.11
2022-11-12T19:27:04.122Z,79.30
2022-11-12T19:29:30.470Z,80.55
2022-11-12T19:31:56.825Z,81.26
2022-11-12T19:34:23.201Z,80.72
2022-11-12T19:37:00.555Z,80.99
2022-11-12T19:39:35.901Z,81.87
2022-11-12T19:42:02.257Z,80.71
2022-11-12T19:44:28.619Z,81.84
2022-11-12T19:46:54.999Z,80.59
2022-11-12T19:49:21.354Z,79.82
2022-11-12T19:51:47.738Z,79.22
2022-11-12T19:54:14.115Z,79.06
2022-11-12T19:56:40.474Z,78.80
2022-11-12T19:59:06.836Z,78.50
2022-11-12T20:01:33.272Z,78.66
2022-11-12T20:03:59.657Z,78.25
2022-11-12T20:06:26.071Z,80.71
2022-11-12T20:08:53.947Z,82.47
2022-11-12T20:11:20.309Z,82.33
2022-11-12T20:13:46.679Z,82.16
2022-11-12T20:16:13.054Z,82.33
2022-11-12T20:18:39.408Z,80.83
2022-11-12T20:21:05.769Z,79.83
2022-11-12T20:23:32.145Z,80.55
2022-11-12T20:25:58.570Z,80.44
2022-11-12T20:28:24.909Z,82.58
2022-11-12T20:30:51.326Z,81.54
2022-11-12T20:33:17.680Z,81.07
2022-11-12T20:35:44.051Z,79.36
2022-11-12T20:38:10.427Z,81.94
2022-11-12T20:40:36.788Z,81.64
2022-11-12T20:43:03.143Z,79.72
2022-11-12T20:45:29.640Z,79.40
2022-11-12T20:47:55.998Z,80.59
2022-11-12T20:50:22.344Z,79.93
2022-11-12T20:52:48.722Z,79.84
2022-11-12T20:55:15.064Z,81.40
2022-11-12T20:57:41.421Z,79.93
2022-11-12T21:00:11.882Z,81.54
2022-11-12T21:02:40.017Z,83.49
2022-11-12T21:05:06.362Z,81.17
2022-11-12T21:07:32.801Z,80.47
2022-11-12T21:09:59.219Z,79.82
2022-11-12T21:12:25.580Z,79.94
2022-11-12T21:14:51.958Z,79.67
2022-11-12T21:17:18.309Z,79.34
2022-11-12T21:19:44.663Z,80.97
2022-11-12T21:22:11.047Z,83.39
2022-11-12T21:24:37.413Z,81.62
2022-11-12T21:27:03.763Z,81.93
2022-11-12T21:29:30.135Z,81.47
2022-11-12T21:31:56.511Z,82.18
2022-11-12T21:34:22.862Z,82.24
2022-11-12T21:36:49.278Z,83.01
2022-11-12T21:39:15.625Z,83.46
2022-11-12T21:41:41.975Z,82.44
2022-11-12T21:44:08.341Z,82.40
2022-11-12T21:46:34.694Z,80.58
2022-11-12T21:49:01.052Z,82.34
2022-11-12T21:51:27.426Z,81.02
2022-11-12T21:53:53.785Z,81.89
2022-11-12T21:56:20.132Z,81.51
2022-11-12T21:58:46.514Z,82.32
2022-11-12T22:01:12.871Z,82.54
2022-11-12T22:03:39.210Z,82.62
2022-11-12T22:06:05.626Z,79.87
2022-11-12T22:08:31.963Z,81.05
2022-11-12T22:10:58.301Z,83.53
2022-11-12T22:13:27.185Z,83.33
2022-11-12T22:15:53.926Z,81.22
2022-11-12T22:18:20.274Z,81.32
2022-11-12T22:20:46.639Z,80.03
2022-11-12T22:23:12.986Z,81.02
2022-11-12T22:25:39.324Z,81.29
2022-11-12T22:28:05.685Z,80.44
2022-11-12T22:30:32.023Z,79.82
2022-11-12T22:32:58.368Z,79.88
2022-11-12T22:35:24.732Z,78.66
2022-11-12T22:37:51.077Z,79.30
2022-11-12T22:40:17.424Z,81.15
2022-11-12T22:42:43.839Z,81.82
2022-11-12T22:45:10.180Z,81.54
2022-11-12T22:47:36.562Z,81.94
2022-11-12T22:50:04.438Z,83.18
2022-11-12T22:55:08.414Z,80.09
2022-11-12T22:57:36.006Z,80.24
2022-11-12T23:00:02.418Z,79.60
2022-11-12T23:02:30.103Z,79.17
2022-11-12T23:05:05.291Z,82.41
2022-11-12T23:07:31.652Z,81.20
2022-11-12T23:09:57.995Z,80.37
2022-11-12T23:15:06.176Z,79.54
2022-11-12T23:17:35.714Z,78.77
2022-11-12T23:20:04.600Z,80.34
2022-11-12T23:22:31.068Z,82.63
2022-11-12T23:24:57.444Z,83.48
2022-11-12T23:27:23.820Z,84.45
2022-11-12T23:29:50.223Z,83.57
2022-11-12T23:32:16.636Z,82.17
2022-11-12T23:34:42.977Z,82.25
2022-11-12T23:37:09.328Z,80.80
2022-11-12T23:39:35.666Z,80.64
2022-11-12T23:42:02.014Z,80.08
2022-11-12T23:44:28.402Z,82.81
2022-11-12T23:46:54.737Z,82.68
2022-11-12T23:49:21.067Z,82.46
2022-11-12T23:51:47.417Z,82.19
2022-11-12T23:54:13.758Z,81.96
2022-11-12T23:56:40.097Z,82.67
2022-11-12T23:59:06.443Z,82.56
